sensor_id;sensor_type;location;lat;lon;timestamp;P1;durP1;ratioP1;P2;durP2;ratioP2
40204;SDS011;26963;42.666;23.366;2023-04-29T00:02:20;7.63;;;4.55;;
40204;SDS011;26963;42.666;23.366;2023-04-29T00:04:46;7.95;;;4.03;;
40204;SDS011;26963;42.666;23.366;2023-04-29T00:07:12;7.47;;;4.47;;
40204;SDS011;26963;42.666;23.366;2023-04-29T00:09:40;9.65;;;4.70;;
40204;SDS011;26963;42.666;23.366;2023-04-29T00:12:06;7.78;;;4.78;;
40204;SDS011;26963;42.666;23.366;2023-04-29T00:14:31;5.93;;;3.97;;
40204;SDS011;26963;42.666;23.366;2023-04-29T00:17:00;7.25;;;4.20;;
40204;SDS011;26963;42.666;23.366;2023-04-29T00:19:25;7.80;;;4.63;;
40204;SDS011;26963;42.666;23.366;2023-04-29T00:21:51;6.53;;;4.35;;
40204;SDS011;26963;42.666;23.366;2023-04-29T00:24:18;9.23;;;4.85;;
40204;SDS011;26963;42.666;23.366;2023-04-29T00:26:44;7.10;;;4.63;;
40204;SDS011;26963;42.666;23.366;2023-04-29T00:29:10;7.43;;;4.32;;
40204;SDS011;26963;42.666;23.366;2023-04-29T00:31:36;9.18;;;4.65;;
40204;SDS011;26963;42.666;23.366;2023-04-29T00:34:02;8.68;;;4.80;;
40204;SDS011;26963;42.666;23.366;2023-04-29T00:36:30;7.75;;;4.20;;
40204;SDS011;26963;42.666;23.366;2023-04-29T00:38:56;7.55;;;4.32;;
40204;SDS011;26963;42.666;23.366;2023-04-29T00:41:25;8.77;;;4.85;;
40204;SDS011;26963;42.666;23.366;2023-04-29T00:43:50;7.05;;;4.82;;
40204;SDS011;26963;42.666;23.366;2023-04-29T00:46:17;8.70;;;4.40;;
40204;SDS011;26963;42.666;23.366;2023-04-29T00:48:42;6.43;;;4.38;;
40204;SDS011;26963;42.666;23.366;2023-04-29T00:51:08;9.05;;;4.45;;
40204;SDS011;26963;42.666;23.366;2023-04-29T00:53:35;6.03;;;4.03;;
40204;SDS011;26963;42.666;23.366;2023-04-29T00:56:01;6.13;;;4.45;;
40204;SDS011;26963;42.666;23.366;2023-04-29T00:58:30;6.57;;;4.22;;
40204;SDS011;26963;42.666;23.366;2023-04-29T01:01:02;7.05;;;4.22;;
40204;SDS011;26963;42.666;23.366;2023-04-29T01:03:28;5.85;;;4.30;;
40204;SDS011;26963;42.666;23.366;2023-04-29T01:05:57;8.75;;;4.15;;
40204;SDS011;26963;42.666;23.366;2023-04-29T01:08:58;9.02;;;5.10;;
40204;SDS011;26963;42.666;23.366;2023-04-29T01:11:38;9.95;;;4.70;;
40204;SDS011;26963;42.666;23.366;2023-04-29T01:14:14;10.77;;;5.10;;
40204;SDS011;26963;42.666;23.366;2023-04-29T01:16:43;8.07;;;4.63;;
40204;SDS011;26963;42.666;23.366;2023-04-29T01:19:19;7.30;;;4.65;;
40204;SDS011;26963;42.666;23.366;2023-04-29T01:21:50;9.07;;;5.00;;
40204;SDS011;26963;42.666;23.366;2023-04-29T01:24:16;8.85;;;4.72;;
40204;SDS011;26963;42.666;23.366;2023-04-29T01:26:46;8.65;;;5.13;;
40204;SDS011;26963;42.666;23.366;2023-04-29T01:32:54;10.38;;;5.13;;
40204;SDS011;26963;42.666;23.366;2023-04-29T01:38:36;8.60;;;5.47;;
40204;SDS011;26963;42.666;23.366;2023-04-29T01:41:10;8.70;;;5.53;;
40204;SDS011;26963;42.666;23.366;2023-04-29T01:43:39;11.30;;;6.03;;
40204;SDS011;26963;42.666;23.366;2023-04-29T01:46:10;10.20;;;5.70;;
40204;SDS011;26963;42.666;23.366;2023-04-29T01:48:39;11.38;;;6.18;;
40204;SDS011;26963;42.666;23.366;2023-04-29T01:51:05;9.32;;;5.30;;
40204;SDS011;26963;42.666;23.366;2023-04-29T01:53:31;7.80;;;5.10;;
40204;SDS011;26963;42.666;23.366;2023-04-29T01:55:57;11.10;;;6.00;;
40204;SDS011;26963;42.666;23.366;2023-04-29T01:58:25;12.40;;;5.65;;
40204;SDS011;26963;42.666;23.366;2023-04-29T02:00:55;9.65;;;5.00;;
40204;SDS011;26963;42.666;23.366;2023-04-29T02:03:21;11.00;;;5.45;;
40204;SDS011;26963;42.666;23.366;2023-04-29T02:05:46;12.10;;;5.50;;
40204;SDS011;26963;42.666;23.366;2023-04-29T02:08:12;8.45;;;5.05;;
40204;SDS011;26963;42.666;23.366;2023-04-29T02:10:37;9.88;;;5.22;;
40204;SDS011;26963;42.666;23.366;2023-04-29T02:13:03;8.88;;;4.82;;
40204;SDS011;26963;42.666;23.366;2023-04-29T02:15:28;9.02;;;4.72;;
40204;SDS011;26963;42.666;23.366;2023-04-29T02:17:54;10.32;;;5.47;;
40204;SDS011;26963;42.666;23.366;2023-04-29T02:20:20;9.65;;;5.68;;
40204;SDS011;26963;42.666;23.366;2023-04-29T02:22:45;10.43;;;5.45;;
40204;SDS011;26963;42.666;23.366;2023-04-29T02:25:11;9.77;;;5.53;;
40204;SDS011;26963;42.666;23.366;2023-04-29T02:27:36;8.13;;;5.22;;
40204;SDS011;26963;42.666;23.366;2023-04-29T02:30:02;7.88;;;5.07;;
40204;SDS011;26963;42.666;23.366;2023-04-29T02:32:29;9.90;;;5.57;;
40204;SDS011;26963;42.666;23.366;2023-04-29T02:34:55;9.65;;;5.90;;
40204;SDS011;26963;42.666;23.366;2023-04-29T02:37:20;9.55;;;5.70;;
40204;SDS011;26963;42.666;23.366;2023-04-29T02:39:46;9.93;;;5.50;;
40204;SDS011;26963;42.666;23.366;2023-04-29T02:42:12;10.30;;;6.28;;
40204;SDS011;26963;42.666;23.366;2023-04-29T02:44:37;10.57;;;6.30;;
40204;SDS011;26963;42.666;23.366;2023-04-29T02:47:03;10.20;;;5.75;;
40204;SDS011;26963;42.666;23.366;2023-04-29T02:49:29;11.77;;;5.40;;
40204;SDS011;26963;42.666;23.366;2023-04-29T02:51:54;11.32;;;6.80;;
40204;SDS011;26963;42.666;23.366;2023-04-29T02:54:20;10.20;;;6.00;;
40204;SDS011;26963;42.666;23.366;2023-04-29T02:56:46;11.43;;;5.75;;
40204;SDS011;26963;42.666;23.366;2023-04-29T02:59:11;12.07;;;6.93;;
40204;SDS011;26963;42.666;23.366;2023-04-29T03:01:37;11.20;;;5.68;;
40204;SDS011;26963;42.666;23.366;2023-04-29T03:04:03;11.45;;;7.18;;
40204;SDS011;26963;42.666;23.366;2023-04-29T03:06:29;11.10;;;6.20;;
40204;SDS011;26963;42.666;23.366;2023-04-29T03:08:55;10.90;;;6.10;;
40204;SDS011;26963;42.666;23.366;2023-04-29T03:11:21;9.20;;;5.75;;
40204;SDS011;26963;42.666;23.366;2023-04-29T03:13:49;14.32;;;6.72;;
40204;SDS011;26963;42.666;23.366;2023-04-29T03:16:14;14.23;;;6.97;;
40204;SDS011;26963;42.666;23.366;2023-04-29T03:18:41;10.85;;;7.03;;
40204;SDS011;26963;42.666;23.366;2023-04-29T03:21:10;13.75;;;7.10;;
40204;SDS011;26963;42.666;23.366;2023-04-29T03:23:35;12.40;;;7.10;;
40204;SDS011;26963;42.666;23.366;2023-04-29T03:26:03;10.63;;;6.38;;
40204;SDS011;26963;42.666;23.366;2023-04-29T03:28:29;10.15;;;6.15;;
40204;SDS011;26963;42.666;23.366;2023-04-29T03:30:54;10.07;;;6.05;;
40204;SDS011;26963;42.666;23.366;2023-04-29T03:33:20;9.10;;;6.13;;
40204;SDS011;26963;42.666;23.366;2023-04-29T03:35:46;9.23;;;6.57;;
40204;SDS011;26963;42.666;23.366;2023-04-29T03:38:12;11.00;;;6.60;;
40204;SDS011;26963;42.666;23.366;2023-04-29T03:40:37;11.38;;;6.65;;
40204;SDS011;26963;42.666;23.366;2023-04-29T03:43:03;12.00;;;6.60;;
40204;SDS011;26963;42.666;23.366;2023-04-29T03:45:28;11.30;;;6.68;;
40204;SDS011;26963;42.666;23.366;2023-04-29T03:47:54;12.55;;;7.10;;
40204;SDS011;26963;42.666;23.366;2023-04-29T03:50:20;11.05;;;6.82;;
40204;SDS011;26963;42.666;23.366;2023-04-29T03:52:45;16.00;;;6.50;;
40204;SDS011;26963;42.666;23.366;2023-04-29T03:55:11;10.18;;;7.28;;
40204;SDS011;26963;42.666;23.366;2023-04-29T03:57:37;12.07;;;7.70;;
40204;SDS011;26963;42.666;23.366;2023-04-29T04:00:03;14.27;;;8.07;;
40204;SDS011;26963;42.666;23.366;2023-04-29T04:02:29;10.73;;;6.72;;
40204;SDS011;26963;42.666;23.366;2023-04-29T04:04:55;10.73;;;7.10;;
40204;SDS011;26963;42.666;23.366;2023-04-29T04:07:20;11.25;;;7.45;;
40204;SDS011;26963;42.666;23.366;2023-04-29T04:09:46;12.48;;;7.40;;
40204;SDS011;26963;42.666;23.366;2023-04-29T04:12:12;13.88;;;7.30;;
40204;SDS011;26963;42.666;23.366;2023-04-29T04:14:37;14.38;;;7.93;;
40204;SDS011;26963;42.666;23.366;2023-04-29T04:17:03;11.77;;;7.35;;
40204;SDS011;26963;42.666;23.366;2023-04-29T04:19:31;11.45;;;7.18;;
40204;SDS011;26963;42.666;23.366;2023-04-29T04:22:02;12.63;;;7.60;;
40204;SDS011;26963;42.666;23.366;2023-04-29T04:24:30;16.65;;;8.38;;
40204;SDS011;26963;42.666;23.366;2023-04-29T04:26:56;16.13;;;9.35;;
40204;SDS011;26963;42.666;23.366;2023-04-29T04:29:21;11.55;;;7.80;;
40204;SDS011;26963;42.666;23.366;2023-04-29T04:31:47;14.43;;;6.88;;
40204;SDS011;26963;42.666;23.366;2023-04-29T04:34:12;13.55;;;7.07;;
40204;SDS011;26963;42.666;23.366;2023-04-29T04:36:38;9.70;;;7.32;;
40204;SDS011;26963;42.666;23.366;2023-04-29T04:39:03;12.27;;;7.88;;
40204;SDS011;26963;42.666;23.366;2023-04-29T04:41:29;18.83;;;9.63;;
40204;SDS011;26963;42.666;23.366;2023-04-29T04:44:00;16.27;;;8.98;;
40204;SDS011;26963;42.666;23.366;2023-04-29T04:46:27;11.82;;;7.25;;
40204;SDS011;26963;42.666;23.366;2023-04-29T04:48:55;12.77;;;7.70;;
40204;SDS011;26963;42.666;23.366;2023-04-29T04:51:20;13.88;;;8.07;;
40204;SDS011;26963;42.666;23.366;2023-04-29T04:53:46;17.08;;;9.30;;
40204;SDS011;26963;42.666;23.366;2023-04-29T04:56:11;18.45;;;9.50;;
40204;SDS011;26963;42.666;23.366;2023-04-29T04:58:37;17.02;;;9.95;;
40204;SDS011;26963;42.666;23.366;2023-04-29T05:01:02;20.48;;;11.25;;
40204;SDS011;26963;42.666;23.366;2023-04-29T05:03:28;18.83;;;11.60;;
40204;SDS011;26963;42.666;23.366;2023-04-29T05:05:54;18.77;;;11.90;;
40204;SDS011;26963;42.666;23.366;2023-04-29T05:08:21;18.05;;;10.88;;
40204;SDS011;26963;42.666;23.366;2023-04-29T05:10:46;20.35;;;10.15;;
40204;SDS011;26963;42.666;23.366;2023-04-29T05:13:12;15.93;;;8.90;;
40204;SDS011;26963;42.666;23.366;2023-04-29T05:15:37;22.38;;;11.73;;
40204;SDS011;26963;42.666;23.366;2023-04-29T05:18:03;17.48;;;10.48;;
40204;SDS011;26963;42.666;23.366;2023-04-29T05:20:29;16.45;;;10.05;;
40204;SDS011;26963;42.666;23.366;2023-04-29T05:22:54;19.27;;;9.95;;
40204;SDS011;26963;42.666;23.366;2023-04-29T05:25:20;13.43;;;9.00;;
40204;SDS011;26963;42.666;23.366;2023-04-29T05:27:45;23.50;;;13.82;;
40204;SDS011;26963;42.666;23.366;2023-04-29T05:30:11;21.55;;;13.65;;
40204;SDS011;26963;42.666;23.366;2023-04-29T05:32:37;15.45;;;9.70;;
40204;SDS011;26963;42.666;23.366;2023-04-29T05:35:02;21.48;;;14.38;;
40204;SDS011;26963;42.666;23.366;2023-04-29T05:37:28;14.00;;;10.77;;
40204;SDS011;26963;42.666;23.366;2023-04-29T05:39:56;21.00;;;11.07;;
40204;SDS011;26963;42.666;23.366;2023-04-29T05:42:22;17.08;;;12.10;;
40204;SDS011;26963;42.666;23.366;2023-04-29T05:44:48;18.10;;;11.50;;
40204;SDS011;26963;42.666;23.366;2023-04-29T05:47:13;21.50;;;11.82;;
40204;SDS011;26963;42.666;23.366;2023-04-29T05:49:39;18.40;;;11.95;;
40204;SDS011;26963;42.666;23.366;2023-04-29T05:52:04;17.40;;;10.77;;
40204;SDS011;26963;42.666;23.366;2023-04-29T05:54:33;18.67;;;11.45;;
40204;SDS011;26963;42.666;23.366;2023-04-29T05:56:59;15.88;;;10.82;;
40204;SDS011;26963;42.666;23.366;2023-04-29T05:59:29;20.25;;;12.07;;
40204;SDS011;26963;42.666;23.366;2023-04-29T06:01:56;15.27;;;9.85;;
40204;SDS011;26963;42.666;23.366;2023-04-29T06:04:22;17.88;;;9.82;;
40204;SDS011;26963;42.666;23.366;2023-04-29T06:06:49;13.38;;;8.30;;
40204;SDS011;26963;42.666;23.366;2023-04-29T06:09:15;18.65;;;8.68;;
40204;SDS011;26963;42.666;23.366;2023-04-29T06:11:41;14.88;;;8.57;;
40204;SDS011;26963;42.666;23.366;2023-04-29T06:14:06;15.10;;;9.00;;
40204;SDS011;26963;42.666;23.366;2023-04-29T06:16:32;12.50;;;7.28;;
40204;SDS011;26963;42.666;23.366;2023-04-29T06:18:58;12.45;;;7.63;;
40204;SDS011;26963;42.666;23.366;2023-04-29T06:21:24;10.43;;;7.07;;
40204;SDS011;26963;42.666;23.366;2023-04-29T06:23:52;13.32;;;7.35;;
40204;SDS011;26963;42.666;23.366;2023-04-29T06:26:18;15.05;;;7.90;;
40204;SDS011;26963;42.666;23.366;2023-04-29T06:28:45;11.77;;;7.47;;
40204;SDS011;26963;42.666;23.366;2023-04-29T06:31:11;13.52;;;7.65;;
40204;SDS011;26963;42.666;23.366;2023-04-29T06:33:37;9.82;;;7.43;;
40204;SDS011;26963;42.666;23.366;2023-04-29T06:36:02;11.63;;;5.90;;
40204;SDS011;26963;42.666;23.366;2023-04-29T06:38:28;12.98;;;7.90;;
40204;SDS011;26963;42.666;23.366;2023-04-29T06:40:54;11.55;;;7.15;;
40204;SDS011;26963;42.666;23.366;2023-04-29T06:43:21;11.68;;;7.05;;
40204;SDS011;26963;42.666;23.366;2023-04-29T06:45:47;12.35;;;6.95;;
40204;SDS011;26963;42.666;23.366;2023-04-29T06:48:13;8.70;;;6.38;;
40204;SDS011;26963;42.666;23.366;2023-04-29T06:50:38;10.60;;;6.13;;
40204;SDS011;26963;42.666;23.366;2023-04-29T06:53:04;9.95;;;5.72;;
40204;SDS011;26963;42.666;23.366;2023-04-29T06:55:29;9.23;;;5.50;;
40204;SDS011;26963;42.666;23.366;2023-04-29T06:57:55;8.85;;;5.57;;
40204;SDS011;26963;42.666;23.366;2023-04-29T07:00:21;7.15;;;4.85;;
40204;SDS011;26963;42.666;23.366;2023-04-29T07:02:47;8.50;;;6.50;;
40204;SDS011;26963;42.666;23.366;2023-04-29T07:05:12;9.68;;;6.15;;
40204;SDS011;26963;42.666;23.366;2023-04-29T07:07:38;10.32;;;5.90;;
40204;SDS011;26963;42.666;23.366;2023-04-29T07:10:04;9.00;;;5.25;;
40204;SDS011;26963;42.666;23.366;2023-04-29T07:12:30;12.80;;;7.90;;
40204;SDS011;26963;42.666;23.366;2023-04-29T07:14:55;11.77;;;6.50;;
40204;SDS011;26963;42.666;23.366;2023-04-29T07:17:24;6.85;;;5.25;;
40204;SDS011;26963;42.666;23.366;2023-04-29T07:19:50;9.63;;;5.35;;
40204;SDS011;26963;42.666;23.366;2023-04-29T07:22:17;11.07;;;6.18;;
40204;SDS011;26963;42.666;23.366;2023-04-29T07:24:43;11.88;;;6.47;;
40204;SDS011;26963;42.666;23.366;2023-04-29T07:27:09;10.35;;;6.82;;
40204;SDS011;26963;42.666;23.366;2023-04-29T07:29:34;9.55;;;6.07;;
40204;SDS011;26963;42.666;23.366;2023-04-29T07:32:00;10.07;;;5.47;;
40204;SDS011;26963;42.666;23.366;2023-04-29T07:34:25;8.88;;;5.93;;
40204;SDS011;26963;42.666;23.366;2023-04-29T07:36:51;11.40;;;7.50;;
40204;SDS011;26963;42.666;23.366;2023-04-29T07:39:16;8.65;;;5.70;;
40204;SDS011;26963;42.666;23.366;2023-04-29T07:41:42;9.05;;;5.10;;
40204;SDS011;26963;42.666;23.366;2023-04-29T07:44:07;11.02;;;5.30;;
40204;SDS011;26963;42.666;23.366;2023-04-29T07:46:33;9.23;;;5.80;;
40204;SDS011;26963;42.666;23.366;2023-04-29T07:48:58;9.02;;;5.20;;
40204;SDS011;26963;42.666;23.366;2023-04-29T07:51:24;10.55;;;4.70;;
40204;SDS011;26963;42.666;23.366;2023-04-29T07:53:53;6.65;;;4.20;;
40204;SDS011;26963;42.666;23.366;2023-04-29T07:56:18;9.40;;;4.63;;
40204;SDS011;26963;42.666;23.366;2023-04-29T07:58:44;10.13;;;5.18;;
40204;SDS011;26963;42.666;23.366;2023-04-29T08:01:09;12.27;;;5.03;;
40204;SDS011;26963;42.666;23.366;2023-04-29T08:03:36;16.60;;;6.47;;
40204;SDS011;26963;42.666;23.366;2023-04-29T08:06:02;10.85;;;5.50;;
40204;SDS011;26963;42.666;23.366;2023-04-29T08:08:29;7.10;;;5.32;;
40204;SDS011;26963;42.666;23.366;2023-04-29T08:10:55;11.63;;;5.70;;
40204;SDS011;26963;42.666;23.366;2023-04-29T08:13:21;7.70;;;5.30;;
40204;SDS011;26963;42.666;23.366;2023-04-29T08:15:46;7.43;;;4.85;;
40204;SDS011;26963;42.666;23.366;2023-04-29T08:18:12;9.57;;;4.95;;
40204;SDS011;26963;42.666;23.366;2023-04-29T08:20:37;8.77;;;3.90;;
40204;SDS011;26963;42.666;23.366;2023-04-29T08:23:03;7.88;;;4.07;;
40204;SDS011;26963;42.666;23.366;2023-04-29T08:25:28;8.30;;;4.85;;
40204;SDS011;26963;42.666;23.366;2023-04-29T08:27:54;10.35;;;4.18;;
40204;SDS011;26963;42.666;23.366;2023-04-29T08:30:20;8.65;;;4.18;;
40204;SDS011;26963;42.666;23.366;2023-04-29T08:32:46;5.35;;;4.00;;
40204;SDS011;26963;42.666;23.366;2023-04-29T08:35:11;6.63;;;5.00;;
40204;SDS011;26963;42.666;23.366;2023-04-29T08:37:38;6.93;;;4.50;;
40204;SDS011;26963;42.666;23.366;2023-04-29T08:40:03;9.88;;;4.13;;
40204;SDS011;26963;42.666;23.366;2023-04-29T08:42:33;9.95;;;5.85;;
40204;SDS011;26963;42.666;23.366;2023-04-29T08:45:00;9.45;;;4.53;;
40204;SDS011;26963;42.666;23.366;2023-04-29T08:47:30;5.70;;;4.35;;
40204;SDS011;26963;42.666;23.366;2023-04-29T08:49:58;10.43;;;4.88;;
40204;SDS011;26963;42.666;23.366;2023-04-29T08:52:28;7.38;;;4.85;;
40204;SDS011;26963;42.666;23.366;2023-04-29T08:54:54;11.65;;;6.03;;
40204;SDS011;26963;42.666;23.366;2023-04-29T08:57:21;6.57;;;3.30;;
40204;SDS011;26963;42.666;23.366;2023-04-29T08:59:48;8.00;;;4.00;;
40204;SDS011;26963;42.666;23.366;2023-04-29T09:02:15;6.35;;;3.58;;
40204;SDS011;26963;42.666;23.366;2023-04-29T09:04:56;7.78;;;4.10;;
40204;SDS011;26963;42.666;23.366;2023-04-29T09:07:29;8.13;;;4.07;;
40204;SDS011;26963;42.666;23.366;2023-04-29T09:09:56;7.22;;;3.58;;
40204;SDS011;26963;42.666;23.366;2023-04-29T09:12:25;6.32;;;4.03;;
40204;SDS011;26963;42.666;23.366;2023-04-29T09:14:50;7.38;;;3.95;;
40204;SDS011;26963;42.666;23.366;2023-04-29T09:17:16;9.52;;;4.47;;
40204;SDS011;26963;42.666;23.366;2023-04-29T09:19:42;8.65;;;5.38;;
40204;SDS011;26963;42.666;23.366;2023-04-29T09:22:08;8.52;;;5.20;;
40204;SDS011;26963;42.666;23.366;2023-04-29T09:24:35;6.57;;;4.35;;
40204;SDS011;26963;42.666;23.366;2023-04-29T09:27:05;7.07;;;4.13;;
40204;SDS011;26963;42.666;23.366;2023-04-29T09:29:30;10.70;;;4.20;;
40204;SDS011;26963;42.666;23.366;2023-04-29T09:32:00;7.47;;;3.90;;
40204;SDS011;26963;42.666;23.366;2023-04-29T09:34:34;9.07;;;5.63;;
40204;SDS011;26963;42.666;23.366;2023-04-29T09:37:02;7.00;;;5.57;;
40204;SDS011;26963;42.666;23.366;2023-04-29T09:39:36;10.60;;;6.35;;
40204;SDS011;26963;42.666;23.366;2023-04-29T09:42:03;8.95;;;6.20;;
40204;SDS011;26963;42.666;23.366;2023-04-29T09:44:30;7.50;;;4.97;;
40204;SDS011;26963;42.666;23.366;2023-04-29T09:49:33;10.50;;;5.78;;
40204;SDS011;26963;42.666;23.366;2023-04-29T09:52:20;8.25;;;6.50;;
40204;SDS011;26963;42.666;23.366;2023-04-29T09:54:45;7.75;;;6.00;;
40204;SDS011;26963;42.666;23.366;2023-04-29T09:57:11;10.50;;;6.40;;
40204;SDS011;26963;42.666;23.366;2023-04-29T09:59:40;11.93;;;5.70;;
40204;SDS011;26963;42.666;23.366;2023-04-29T10:04:46;9.50;;;5.60;;
40204;SDS011;26963;42.666;23.366;2023-04-29T10:07:17;10.00;;;6.30;;
40204;SDS011;26963;42.666;23.366;2023-04-29T10:09:45;11.45;;;8.27;;
40204;SDS011;26963;42.666;23.366;2023-04-29T10:12:14;11.52;;;6.72;;
40204;SDS011;26963;42.666;23.366;2023-04-29T10:15:03;10.27;;;6.72;;
40204;SDS011;26963;42.666;23.366;2023-04-29T10:17:35;14.90;;;8.45;;
40204;SDS011;26963;42.666;23.366;2023-04-29T10:20:07;13.85;;;6.40;;
40204;SDS011;26963;42.666;23.366;2023-04-29T10:22:47;13.77;;;6.60;;
40204;SDS011;26963;42.666;23.366;2023-04-29T10:25:14;13.80;;;7.60;;
40204;SDS011;26963;42.666;23.366;2023-04-29T10:27:41;10.80;;;5.95;;
40204;SDS011;26963;42.666;23.366;2023-04-29T10:30:11;10.68;;;6.82;;
40204;SDS011;26963;42.666;23.366;2023-04-29T10:32:45;11.13;;;6.70;;
40204;SDS011;26963;42.666;23.366;2023-04-29T10:35:13;14.63;;;6.93;;
40204;SDS011;26963;42.666;23.366;2023-04-29T10:37:40;12.18;;;5.93;;
40204;SDS011;26963;42.666;23.366;2023-04-29T10:42:47;13.18;;;6.85;;
40204;SDS011;26963;42.666;23.366;2023-04-29T10:50:30;14.95;;;5.82;;
40204;SDS011;26963;42.666;23.366;2023-04-29T10:52:56;11.75;;;5.65;;
40204;SDS011;26963;42.666;23.366;2023-04-29T10:55:23;8.07;;;5.47;;
40204;SDS011;26963;42.666;23.366;2023-04-29T10:57:51;9.73;;;5.47;;
40204;SDS011;26963;42.666;23.366;2023-04-29T11:00:27;13.13;;;8.20;;
40204;SDS011;26963;42.666;23.366;2023-04-29T11:03:01;9.45;;;5.57;;
40204;SDS011;26963;42.666;23.366;2023-04-29T11:05:30;10.30;;;7.70;;
40204;SDS011;26963;42.666;23.366;2023-04-29T11:08:13;7.75;;;4.10;;
40204;SDS011;26963;42.666;23.366;2023-04-29T11:10:47;8.98;;;4.63;;
40204;SDS011;26963;42.666;23.366;2023-04-29T11:13:22;7.55;;;5.38;;
40204;SDS011;26963;42.666;23.366;2023-04-29T11:15:51;10.27;;;5.15;;
40204;SDS011;26963;42.666;23.366;2023-04-29T11:18:18;7.70;;;4.10;;
40204;SDS011;26963;42.666;23.366;2023-04-29T11:21:28;8.77;;;4.40;;
40204;SDS011;26963;42.666;23.366;2023-04-29T11:23:35;12.93;;;4.97;;
40204;SDS011;26963;42.666;23.366;2023-04-29T11:26:01;8.38;;;3.90;;
40204;SDS011;26963;42.666;23.366;2023-04-29T11:28:31;11.77;;;9.40;;
40204;SDS011;26963;42.666;23.366;2023-04-29T11:31:00;10.95;;;5.60;;
40204;SDS011;26963;42.666;23.366;2023-04-29T11:33:31;6.60;;;4.78;;
40204;SDS011;26963;42.666;23.366;2023-04-29T11:36:00;7.65;;;5.25;;
40204;SDS011;26963;42.666;23.366;2023-04-29T11:38:29;7.43;;;4.15;;
40204;SDS011;26963;42.666;23.366;2023-04-29T11:40:55;6.22;;;3.45;;
40204;SDS011;26963;42.666;23.366;2023-04-29T11:43:22;8.63;;;4.40;;
40204;SDS011;26963;42.666;23.366;2023-04-29T11:45:48;5.13;;;2.90;;
40204;SDS011;26963;42.666;23.366;2023-04-29T11:48:19;7.25;;;2.80;;
40204;SDS011;26963;42.666;23.366;2023-04-29T11:51:00;6.25;;;3.80;;
40204;SDS011;26963;42.666;23.366;2023-04-29T11:53:26;6.18;;;3.83;;
40204;SDS011;26963;42.666;23.366;2023-04-29T11:55:54;6.85;;;2.80;;
40204;SDS011;26963;42.666;23.366;2023-04-29T11:58:23;4.85;;;2.42;;
40204;SDS011;26963;42.666;23.366;2023-04-29T12:00:49;6.35;;;2.60;;
40204;SDS011;26963;42.666;23.366;2023-04-29T12:03:16;6.88;;;2.70;;
40204;SDS011;26963;42.666;23.366;2023-04-29T12:08:12;4.13;;;2.15;;
40204;SDS011;26963;42.666;23.366;2023-04-29T12:10:38;5.57;;;2.85;;
40204;SDS011;26963;42.666;23.366;2023-04-29T12:13:07;5.20;;;2.50;;
40204;SDS011;26963;42.666;23.366;2023-04-29T12:15:33;6.00;;;2.80;;
40204;SDS011;26963;42.666;23.366;2023-04-29T12:17:59;9.63;;;2.65;;
40204;SDS011;26963;42.666;23.366;2023-04-29T12:20:26;6.13;;;2.67;;
40204;SDS011;26963;42.666;23.366;2023-04-29T12:22:53;8.52;;;2.50;;
40204;SDS011;26963;42.666;23.366;2023-04-29T12:25:23;5.57;;;2.40;;
40204;SDS011;26963;42.666;23.366;2023-04-29T12:27:49;5.28;;;2.38;;
40204;SDS011;26963;42.666;23.366;2023-04-29T12:30:15;5.80;;;2.53;;
40204;SDS011;26963;42.666;23.366;2023-04-29T12:32:41;4.75;;;2.60;;
40204;SDS011;26963;42.666;23.366;2023-04-29T12:35:13;4.57;;;2.10;;
40204;SDS011;26963;42.666;23.366;2023-04-29T12:37:40;5.13;;;2.75;;
40204;SDS011;26963;42.666;23.366;2023-04-29T12:40:07;5.47;;;2.33;;
40204;SDS011;26963;42.666;23.366;2023-04-29T12:42:39;5.43;;;2.45;;
40204;SDS011;26963;42.666;23.366;2023-04-29T12:45:05;5.78;;;2.70;;
40204;SDS011;26963;42.666;23.366;2023-04-29T12:47:31;5.50;;;2.72;;
40204;SDS011;26963;42.666;23.366;2023-04-29T12:50:01;4.38;;;2.00;;
40204;SDS011;26963;42.666;23.366;2023-04-29T12:52:26;4.75;;;2.45;;
40204;SDS011;26963;42.666;23.366;2023-04-29T12:54:55;4.35;;;2.17;;
40204;SDS011;26963;42.666;23.366;2023-04-29T12:57:21;5.10;;;2.72;;
40204;SDS011;26963;42.666;23.366;2023-04-29T12:59:49;5.20;;;2.53;;
40204;SDS011;26963;42.666;23.366;2023-04-29T13:02:14;6.15;;;2.60;;
40204;SDS011;26963;42.666;23.366;2023-04-29T13:04:40;5.03;;;2.80;;
40204;SDS011;26963;42.666;23.366;2023-04-29T13:07:06;9.90;;;3.28;;
40204;SDS011;26963;42.666;23.366;2023-04-29T13:09:31;7.88;;;2.80;;
40204;SDS011;26963;42.666;23.366;2023-04-29T13:11:58;6.63;;;3.20;;
40204;SDS011;26963;42.666;23.366;2023-04-29T13:14:23;5.88;;;2.88;;
40204;SDS011;26963;42.666;23.366;2023-04-29T13:16:49;4.95;;;2.90;;
40204;SDS011;26963;42.666;23.366;2023-04-29T13:19:15;5.72;;;2.67;;
40204;SDS011;26963;42.666;23.366;2023-04-29T13:21:40;3.97;;;2.55;;
40204;SDS011;26963;42.666;23.366;2023-04-29T13:24:06;6.80;;;3.30;;
40204;SDS011;26963;42.666;23.366;2023-04-29T13:26:32;6.65;;;2.80;;
40204;SDS011;26963;42.666;23.366;2023-04-29T13:28:58;5.53;;;2.50;;
40204;SDS011;26963;42.666;23.366;2023-04-29T13:31:23;4.45;;;2.42;;
40204;SDS011;26963;42.666;23.366;2023-04-29T13:33:49;4.05;;;2.25;;
40204;SDS011;26963;42.666;23.366;2023-04-29T13:36:14;5.18;;;2.75;;
40204;SDS011;26963;42.666;23.366;2023-04-29T13:38:40;8.07;;;3.08;;
40204;SDS011;26963;42.666;23.366;2023-04-29T13:41:05;4.43;;;2.00;;
40204;SDS011;26963;42.666;23.366;2023-04-29T13:43:31;6.45;;;2.63;;
40204;SDS011;26963;42.666;23.366;2023-04-29T13:45:57;3.50;;;1.80;;
40204;SDS011;26963;42.666;23.366;2023-04-29T13:48:26;3.58;;;2.40;;
40204;SDS011;26963;42.666;23.366;2023-04-29T13:50:51;3.60;;;2.20;;
40204;SDS011;26963;42.666;23.366;2023-04-29T13:53:17;4.95;;;2.13;;
40204;SDS011;26963;42.666;23.366;2023-04-29T13:55:43;2.92;;;2.00;;
40204;SDS011;26963;42.666;23.366;2023-04-29T13:58:08;3.33;;;2.50;;
40204;SDS011;26963;42.666;23.366;2023-04-29T14:00:34;3.75;;;2.30;;
40204;SDS011;26963;42.666;23.366;2023-04-29T14:02:59;9.25;;;2.80;;
40204;SDS011;26963;42.666;23.366;2023-04-29T14:05:25;6.35;;;3.17;;
40204;SDS011;26963;42.666;23.366;2023-04-29T14:07:51;5.22;;;2.42;;
40204;SDS011;26963;42.666;23.366;2023-04-29T14:10:16;5.85;;;2.40;;
40204;SDS011;26963;42.666;23.366;2023-04-29T14:12:42;3.78;;;2.30;;
40204;SDS011;26963;42.666;23.366;2023-04-29T14:15:08;4.28;;;2.90;;
40204;SDS011;26963;42.666;23.366;2023-04-29T14:17:34;4.40;;;2.20;;
40204;SDS011;26963;42.666;23.366;2023-04-29T14:20:01;7.63;;;2.58;;
40204;SDS011;26963;42.666;23.366;2023-04-29T14:22:26;3.08;;;2.10;;
40204;SDS011;26963;42.666;23.366;2023-04-29T14:24:52;5.88;;;2.20;;
40204;SDS011;26963;42.666;23.366;2023-04-29T14:27:18;3.85;;;2.35;;
40204;SDS011;26963;42.666;23.366;2023-04-29T14:29:45;4.88;;;2.83;;
40204;SDS011;26963;42.666;23.366;2023-04-29T14:32:10;3.42;;;2.40;;
40204;SDS011;26963;42.666;23.366;2023-04-29T14:34:36;4.88;;;2.40;;
40204;SDS011;26963;42.666;23.366;2023-04-29T14:37:02;7.57;;;2.30;;
40204;SDS011;26963;42.666;23.366;2023-04-29T14:39:30;5.88;;;2.17;;
40204;SDS011;26963;42.666;23.366;2023-04-29T14:41:55;5.05;;;1.98;;
40204;SDS011;26963;42.666;23.366;2023-04-29T14:44:21;21.98;;;15.05;;
40204;SDS011;26963;42.666;23.366;2023-04-29T14:46:46;10.90;;;5.68;;
40204;SDS011;26963;42.666;23.366;2023-04-29T14:49:12;5.20;;;2.92;;
40204;SDS011;26963;42.666;23.366;2023-04-29T14:51:38;5.57;;;3.25;;